Latest Coastal Weather Observations for Neptune Island

IDT60701

Issued at 3:41 am EST Saturday 30 April 2016 (issued every 10 minutes, with the page automatically refreshed every 10 minutes)

About coastal observations | Map of coastal stations | Coastal observations for TAS | Marine services | Other Formats
Station Details ID: 018115 Name: NEPTUNE ISLAND Lat: -35.34 Lon: 136.12 Height: 32.0 m
Data from the previous 72 hours. | See also: Recent months at Neptune Island
Date/Time
EST
Temp

°C
Wind Pressure Rain
since 9am
mm
Weather Cloud Vis
km
Sea
Height
m
Swell
Dir
 
Speed
knots
Gust
knots
hPa Trend Height
m
Period
s
Dir
30/03:30am 16.5 NNW 17 21 1009.5 - 0.0 - - - - - - -
30/03:00am 16.8 NNW 19 22 1009.7 - 0.0 - - - - - - -
30/02:30am 16.8 NNW 17 22 1009.8 - 0.0 - - - - - - -
30/02:00am 16.9 NNW 17 20 1009.7 - 0.0 - - - - - - -
30/01:30am 17.0 NNW 19 22 1010.0 - 0.0 - - - - - - -
30/01:00am 16.9 NNW 20 23 1010.3 - 0.0 - - - - - - -
30/12:30am 17.2 NNW 21 25 1010.6 - 0.0 - - - - - - -
30/12:00am 17.3 NNW 20 23 1011.0 - 0.0 - - - - - - -
 
Date/Time
EST
Temp

°C
Wind Pressure Rain
since 9am
mm
Weather Cloud Vis
km
Sea
Height
m
Swell
Dir
 
Speed
knots
Gust
knots
hPa Trend Height
m
Period
s
Dir
29/11:30pm 17.2 NNW 19 23 1011.1 - 0.0 - - - - - - -
29/11:00pm 17.4 NNW 19 22 1011.4 - 0.0 - - - - - - -
29/10:30pm 17.3 NNW 19 22 1011.5 - 0.0 - - - - - - -
29/10:00pm 17.4 NNW 18 22 1011.3 - 0.0 - - - - - - -
29/09:30pm 17.7 NNW 19 23 1011.3 - 0.0 - - - - - - -
29/09:00pm 17.7 NW 18 21 1011.2 - 0.0 - - - - - - -
29/08:30pm 17.7 NNW 15 18 1010.9 - 0.0 - - - - - - -
29/08:00pm 17.8 NW 14 16 1010.9 - 0.0 - - - - - - -
29/07:30pm 17.8 NW 14 16 1010.8 - 0.0 - - - - - - -
29/07:00pm 17.9 NW 13 15 1010.7 - 0.0 - - - - - - -
29/06:30pm 18.0 NW 12 14 1010.4 - 0.0 - - - - - - -
29/06:00pm 18.4 NW 11 13 1010.2 - 0.0 - - - - - - -
29/05:30pm 18.9 WNW 12 14 1010.0 - 0.0 - - - - - - -
29/05:00pm 19.2 NW 10 13 1010.0 - 0.0 - - - - - - -
29/04:30pm 19.3 WNW 12 15 1009.9 - 0.0 - - - - - - -
29/04:00pm 19.4 WNW 14 16 1009.8 - 0.0 - - - - - - -
29/03:30pm 19.8 WNW 13 16 1009.5 - 0.0 - - - - - - -
29/03:00pm 19.7 WNW 15 18 1009.5 - 0.0 - - - - - - -
29/02:30pm 19.7 WNW 16 19 1009.7 - 0.0 - - - - - - -
29/02:00pm 19.0 WNW 18 21 1009.6 - 0.0 - - - - - - -
29/01:30pm 19.4 WNW 17 21 1009.7 - 0.0 - - - - - - -
29/01:00pm 20.4 NNW 13 14 1009.9 - 0.0 - - - - - - -
29/12:30pm 20.0 NNW 13 16 1010.1 - 0.0 - - - - - - -
29/12:00pm 19.4 N 15 18 1010.1 - 0.0 - - - - - - -
29/11:30am 19.6 N 14 17 1010.3 - 0.0 - - - - - - -
29/11:00am 18.5 N 18 21 1010.5 - 0.0 - - - - - - -
29/10:30am 18.2 N 20 23 1010.2 - 0.0 - - - - - - -
29/10:00am 17.9 N 20 22 1010.3 - 0.0 - - - - - - -
29/09:30am 17.5 N 19 23 1010.4 - 2.2 - - - - - - -
29/09:00am 17.3 N 19 24 1010.3 - 2.2 - - - - - - -
29/08:30am 16.9 N 19 24 1010.2 - 2.2 - - - - - - -
29/08:00am 16.8 N 18 22 1009.9 - 2.2 - - - - - - -
29/07:30am 16.9 N 16 19 1009.7 - 2.2 - - - - - - -
29/07:00am 16.7 N 18 20 1009.5 - 2.2 - - - - - - -
29/06:30am 16.4 N 17 21 1009.5 - 2.2 - - - - - - -
29/06:00am 16.3 N 19 22 1009.3 - 2.2 - - - - - - -
29/05:30am 16.5 N 19 21 1009.3 - 2.2 - - - - - - -
29/05:00am 16.4 N 20 23 1009.1 - 2.2 - - - - - - -
29/04:30am 16.3 N 15 18 1008.9 - 2.2 - - - - - - -
29/04:00am 16.7 N 19 23 1009.3 - 2.2 - - - - - - -
29/03:30am 16.4 N 17 20 1009.5 - 2.2 Recent precip. - - - - - -
29/03:00am 16.8 N 20 25 1010.1 - 2.2 - - - - - - -
29/02:30am 17.9 NNW 20 23 1009.8 - 1.8 - - - - - - -
29/02:00am 18.1 NNW 19 24 1010.7 - 1.8 - - - - - - -
29/01:30am 17.7 NNW 13 16 1010.5 - 1.8 - - - - - - -
29/01:00am 17.6 NNW 10 13 1009.9 - 1.6 - - - - - - -
29/12:30am 17.7 WNW 11 13 1010.2 - 1.6 Recent precip. - - - - - -
29/12:00am 17.7 WNW 7 11 1010.2 - 1.6 - - - - - - -
 
Date/Time
EST
Temp

°C
Wind Pressure Rain
since 9am
mm
Weather Cloud Vis
km
Sea
Height
m
Swell
Dir
 
Speed
knots
Gust
knots
hPa Trend Height
m
Period
s
Dir
28/11:30pm 17.7 W 9 11 1010.3 - 1.2 - - - - - - -
28/11:00pm 17.6 NNW 2 6 1010.3 - 1.2 - - - - - - -
28/10:30pm 17.6 E 1 4 1010.2 - 1.2 - - - - - - -
28/10:00pm 17.4 E 6 7 1010.3 - 1.2 - - - - - - -
28/09:30pm 17.3 ESE 5 6 1010.2 - 1.2 - - - - - - -
28/09:00pm 17.4 E 8 9 1010.3 - 1.2 - - - - - - -
28/08:30pm 17.4 E 10 11 1010.4 - 1.2 - - - - - - -
28/08:00pm 17.3 E 11 12 1010.4 - 1.2 - - - - - - -
28/07:30pm 17.2 E 10 13 1010.4 - 1.2 - - - - - - -
28/07:00pm 17.4 ENE 13 16 1010.4 - 1.2 - - - - - - -
28/06:30pm 17.2 E 13 15 1010.3 - 1.2 - - - - - - -
28/06:00pm 16.9 E 12 14 1010.6 - 1.2 - - - - - - -
28/05:30pm 16.9 E 8 9 1011.2 - 1.2 - - - - - - -
28/05:00pm 17.0 ENE 9 10 1011.6 - 1.2 - - - - - - -
28/04:30pm 17.4 ENE 13 15 1011.8 - 1.2 - - - - - - -
28/04:00pm 17.7 ENE 11 14 1011.8 - 1.2 - - - - - - -
28/03:30pm 17.2 ENE 10 11 1012.1 - 1.2 - - - - - - -
28/03:00pm 16.8 ENE 10 13 1012.3 - 1.2 - - - - - - -
28/02:30pm 16.7 ENE 10 11 1012.7 - 1.2 - - - - - - -
28/02:00pm 16.5 NE 9 12 1013.4 - 0.6 - - - - - - -
28/01:30pm 16.9 ENE 10 12 1013.8 - 0.6 - - - - - - -
28/01:00pm 16.7 ENE 8 9 1014.2 - 0.6 - - - - - - -
28/12:30pm 16.3 NE 7 9 1015.1 - 0.6 Recent precip. - - - - - -
28/12:00pm 15.9 NE 13 17 1015.5 - 0.4 - - - - - - -
28/11:30am 16.8 NNE 11 14 1016.5 - 0.0 - - - - - - -
28/11:00am 17.4 NE 10 14 1016.5 - 0.0 - - - - - - -
28/10:30am 18.1 ENE 12 14 1016.6 - 0.0 - - - - - - -
28/10:00am 17.6 ENE 9 13 1016.8 - 0.0 - - - - - - -
28/09:30am 17.5 ENE 7 8 1017.1 - 0.4 - - - - - - -
28/09:00am 17.8 ENE 5 6 1016.8 - 0.4 - - - - - - -
28/08:30am 16.1 ESE 4 7 1016.5 - 0.4 - - - - - - -
28/08:00am 15.7 SE 4 5 1016.1 - 0.4 - - - - - - -
28/07:30am 16.0 CALM 0 0 1015.8 - 0.4 - - - - - - -
28/07:00am 16.1 SW 3 5 1016.0 - 0.4 - - - - - - -
28/06:30am 16.2 SW 4 7 1015.8 - 0.4 - - - - - - -
28/06:00am 16.2 SW 5 7 1015.8 - 0.4 - - - - - - -
28/05:30am 16.5 WSW 6 8 1015.6 - 0.4 - - - - - - -
28/05:00am 16.7 WSW 8 9 1015.4 - 0.4 - - - - - - -
28/04:30am 16.7 WSW 10 11 1015.2 - 0.4 - - - - - - -
28/04:00am 16.9 WSW 10 11 1015.3 - 0.4 - - - - - - -
28/03:30am 16.9 WSW 10 13 1015.5 - 0.4 - - - - - - -
28/03:00am 17.3 WSW 13 15 1015.4 - 0.4 - - - - - - -
28/02:30am 17.2 WSW 13 16 1015.4 - 0.4 - - - - - - -
28/02:00am 17.3 WSW 13 15 1015.5 - 0.4 - - - - - - -
28/01:30am 17.3 WSW 14 17 1015.2 - 0.4 - - - - - - -
28/01:00am 17.7 WSW 16 18 1015.3 - 0.4 - - - - - - -
28/12:30am 17.8 WSW 15 17 1014.9 - 0.4 - - - - - - -
28/12:00am 17.9 WSW 17 19 1014.7 - 0.4 - - - - - - -
 
Date/Time
EST
Temp

°C
Wind Pressure Rain
since 9am
mm
Weather Cloud Vis
km
Sea
Height
m
Swell
Dir
 
Speed
knots
Gust
knots
hPa Trend Height
m
Period
s
Dir
27/11:30pm 17.9 WSW 16 19 1014.8 - 0.4 - - - - - - -
27/11:00pm 17.9 WSW 14 16 1014.6 - 0.4 - - - - - - -
27/10:30pm 17.9 WSW 12 15 1014.6 - 0.4 - - - - - - -
27/10:00pm 17.9 WSW 16 18 1014.3 - 0.2 - - - - - - -
27/09:30pm 18.0 WSW 16 18 1014.2 - 0.2 - - - - - - -
27/09:00pm 18.1 WSW 11 13 1014.0 - 0.2 - - - - - - -
27/08:30pm 18.0 SW 13 15 1013.8 - 0.2 - - - - - - -
27/08:00pm 18.2 WSW 12 15 1013.1 - 0.0 - - - - - - -
27/07:30pm 18.3 SW 11 13 1012.8 - 0.0 - - - - - - -
27/07:00pm 18.1 SW 14 17 1012.6 - 0.0 - - - - - - -
27/06:30pm 18.9 WSW 13 14 1012.1 - 0.0 - - - - - - -
27/06:00pm 19.0 WSW 12 14 1011.8 - 0.0 - - - - - - -
27/05:30pm 19.4 WSW 12 15 1011.4 - 0.0 - - - - - - -
27/05:00pm 19.3 WSW 15 17 1011.1 - 0.0 - - - - - - -
27/04:30pm 19.5 WSW 16 17 1010.9 - 0.0 - - - - - - -
27/04:00pm 19.8 WSW 16 19 1010.7 - 0.0 - - - - - - -
27/03:30pm 19.9 WSW 14 16 1010.7 - 0.0 - - - - - - -
27/03:00pm 20.8 WSW 14 17 1010.3 - 0.0 - - - - - - -
27/02:30pm 21.2 W 14 16 1010.1 - 0.0 - - - - - - -
27/02:00pm 21.9 WNW 13 16 1010.0 - 0.0 - - - - - - -
27/01:30pm 21.9 WNW 12 15 1010.0 - 0.0 - - - - - - -
27/01:00pm 22.1 NW 12 14 1010.2 - 0.0 - - - - - - -
27/12:30pm 22.1 N 11 13 1010.2 - 0.0 - - - - - - -
27/12:00pm 21.2 NNW 12 14 1010.1 - 0.0 - - - - - - -
27/11:30am 20.4 N 11 14 1010.4 - 0.0 - - - - - - -
27/11:00am 20.2 N 9 11 1010.3 - 0.0 - - - - - - -
27/10:30am 20.3 N 14 17 1010.7 - 0.0 - - - - - - -
27/10:00am 21.3 N 13 16 1010.6 - 0.0 - - - - - - -
27/09:30am 20.7 N 12 14 1010.9 - 0.0 - - - - - - -
27/09:00am 20.7 N 15 19 1010.8 - 0.0 - - - - - - -
27/08:30am 20.8 N 16 19 1010.8 - 0.0 - - - - - - -
27/08:00am 20.3 N 14 17 1010.7 - 0.0 - - - - - - -
27/07:30am 20.0 N 13 17 1010.4 - 0.0 - - - - - - -
27/07:00am 20.6 NNW 16 18 1010.4 - 0.0 - - - - - - -
27/06:30am 20.3 N 15 18 1010.0 - 0.0 - - - - - - -
27/06:00am 20.0 NNW 16 19 1010.3 - 0.0 - - - - - - -
27/05:30am 20.5 NNW 19 25 1010.3 - 0.0 - - - - - - -
27/05:00am 20.7 N 25 30 1009.0 - 0.0 - - - - - - -
27/04:30am 20.7 N 24 27 1009.0 - 0.0 - - - - - - -

Other Formats:

Comma delimited format used in spreadsheet applications
http://www.bom.gov.au/fwo/IDT60701/IDT60701.94804.axf

JavaScript Object Notation format (JSON) in row-major order
http://www.bom.gov.au/fwo/IDT60701/IDT60701.94804.json